Time;durP1;ratioP1;P1;durP2;ratioP2;P2;SDS_P1;SDS_P2;PMS_P1;PMS_P2;Temp;Humidity;BMP_temperature;BMP_pressure;BME280_temperature;BME280_humidity;BME280_pressure;Samples;Min_cycle;Max_cycle;Signal;HPM_P1;HPM_P2
2023/09/11 00:01:37;;;;;;;701.40;541.95;;;19.10;99.90;;;;;;6342732;22;20093;-89
2023/09/11 00:04:07;;;;;;;702.72;543.70;;;19.10;99.90;;;;;;6342061;22;20344;-88
2023/09/11 00:06:33;;;;;;;700.42;542.17;;;19.00;99.90;;;;;;6316717;22;20015;-89
2023/09/11 00:09:00;;;;;;;898.83;802.45;;;19.00;99.90;;;;;;6342460;22;20014;-89
2023/09/11 00:11:26;;;;;;;889.28;793.15;;;19.00;99.90;;;;;;6342050;22;20085;-89
2023/09/11 00:13:52;;;;;;;716.03;544.97;;;19.00;99.90;;;;;;6338828;22;20463;-89
2023/09/11 00:16:18;;;;;;;719.78;543.50;;;19.00;99.90;;;;;;6311906;22;20015;-90
2023/09/11 00:18:45;;;;;;;712.42;544.38;;;19.00;99.90;;;;;;6311965;22;20023;-89
2023/09/11 00:21:11;;;;;;;897.30;796.83;;;18.90;99.90;;;;;;6337928;22;20011;-90
2023/09/11 00:23:37;;;;;;;896.13;798.03;;;18.90;99.90;;;;;;6337719;22;20015;-89
2023/09/11 00:26:02;;;;;;;898.97;800.00;;;18.90;99.90;;;;;;6337600;22;20057;-88
2023/09/11 00:28:28;;;;;;;723.83;540.25;;;18.90;99.90;;;;;;6339091;22;20046;-89
2023/09/11 00:31:01;;;;;;;732.15;549.17;;;18.80;99.90;;;;;;6311176;22;20022;-90
2023/09/11 00:33:26;;;;;;;697.97;537.50;;;18.80;99.90;;;;;;6339466;22;20019;-90
2023/09/11 00:35:53;;;;;;;900.20;804.97;;;18.80;99.90;;;;;;6311340;22;20057;-90
2023/09/11 00:38:18;;;;;;;679.10;537.92;;;18.80;99.90;;;;;;6337507;22;20021;-89
2023/09/11 00:40:46;;;;;;;679.13;539.05;;;18.80;99.90;;;;;;6337964;22;20448;-89
2023/09/11 00:43:12;;;;;;;673.85;540.53;;;18.80;99.90;;;;;;6338844;22;20088;-88
2023/09/11 00:45:38;;;;;;;670.50;537.67;;;18.80;99.90;;;;;;6337115;22;20014;-89
2023/09/11 00:48:04;;;;;;;890.80;797.42;;;18.70;99.90;;;;;;6339121;22;20081;-89
2023/09/11 00:50:31;;;;;;;885.63;792.42;;;18.70;99.90;;;;;;6338111;22;20015;-89
2023/09/11 00:53:03;;;;;;;883.03;790.47;;;18.70;99.90;;;;;;6311797;22;20019;-89
2023/09/11 00:55:29;;;;;;;894.05;799.58;;;18.70;99.90;;;;;;6337587;22;20042;-88
2023/09/11 00:57:55;;;;;;;681.80;540.20;;;18.70;99.90;;;;;;6337621;22;20460;-90
2023/09/11 01:00:22;;;;;;;888.55;794.63;;;18.70;99.90;;;;;;6339248;22;20437;-90
2023/09/11 01:02:48;;;;;;;881.15;788.08;;;18.70;99.90;;;;;;6339051;22;20011;-91
2023/09/11 01:09:02;;;;;;;883.13;789.10;;;18.60;99.90;;;;;;6338602;22;20052;-89
2023/09/11 01:11:27;;;;;;;680.42;532.88;;;18.60;99.90;;;;;;6338302;22;20035;-90
2023/09/11 01:13:54;;;;;;;673.85;532.95;;;18.60;99.90;;;;;;6338593;22;20022;-90
2023/09/11 01:16:29;;;;;;;891.55;797.83;;;18.60;99.90;;;;;;6337068;22;20015;-89
2023/09/11 01:19:22;;;;;;;709.35;533.10;;;18.60;99.90;;;;;;6338710;22;20062;-89
2023/09/11 01:21:50;;;;;;;882.50;785.92;;;18.60;99.90;;;;;;6313027;22;20014;-90
2023/09/11 01:24:25;;;;;;;711.80;537.35;;;18.50;99.90;;;;;;6313235;22;20080;-89
2023/09/11 01:27:05;;;;;;;891.73;789.00;;;18.50;99.90;;;;;;6338674;22;20015;-89
2023/09/11 01:29:33;;;;;;;719.05;531.63;;;18.50;99.90;;;;;;6339327;22;20054;-89
2023/09/11 01:32:05;;;;;;;710.97;533.95;;;18.50;99.90;;;;;;6340383;22;20037;-89
2023/09/11 01:34:30;;;;;;;881.45;785.58;;;18.50;99.90;;;;;;6339093;22;20022;-89
2023/09/11 01:36:56;;;;;;;887.60;791.90;;;18.50;99.90;;;;;;6340246;22;20494;-89
2023/09/11 01:39:23;;;;;;;877.72;783.67;;;18.50;99.90;;;;;;6338453;22;20033;-89
2023/09/11 01:41:53;;;;;;;883.20;790.55;;;18.40;99.90;;;;;;6338467;22;20413;-89
2023/09/11 01:44:23;;;;;;;676.30;534.42;;;18.50;99.90;;;;;;6338727;22;20010;-88
2023/09/11 01:46:51;;;;;;;873.05;781.40;;;18.50;99.90;;;;;;6337980;22;20500;-86
2023/09/11 01:49:19;;;;;;;874.50;783.08;;;18.40;99.90;;;;;;6340126;22;20099;-89
2023/09/11 01:51:45;;;;;;;666.47;530.72;;;18.40;99.90;;;;;;6338300;22;20019;-89
2023/09/11 01:54:12;;;;;;;661.63;528.40;;;18.40;99.90;;;;;;6340032;22;20407;-89
2023/09/11 01:56:37;;;;;;;662.13;531.53;;;18.40;99.90;;;;;;6338231;22;20080;-89
2023/09/11 01:59:03;;;;;;;871.20;780.60;;;18.40;99.90;;;;;;6338573;22;20014;-89
2023/09/11 02:01:29;;;;;;;877.35;785.40;;;18.40;99.90;;;;;;6340084;22;20018;-90
2023/09/11 02:03:55;;;;;;;877.55;785.22;;;18.40;99.90;;;;;;6338825;22;20019;-89
2023/09/11 02:06:20;;;;;;;672.53;528.10;;;18.30;99.90;;;;;;6312738;22;20329;-91
2023/09/11 02:08:46;;;;;;;872.90;779.28;;;18.30;99.90;;;;;;6338145;22;20050;-90
2023/09/11 02:11:14;;;;;;;690.58;533.00;;;18.30;99.90;;;;;;6312279;22;20076;-90
2023/09/11 02:13:41;;;;;;;699.38;525.10;;;18.20;99.90;;;;;;6339515;22;20014;-89
2023/09/11 02:16:06;;;;;;;701.20;530.58;;;18.20;99.90;;;;;;6340107;22;20011;-90
2023/09/11 02:18:32;;;;;;;885.33;789.30;;;18.20;99.90;;;;;;6338295;22;20023;-89
2023/09/11 02:20:58;;;;;;;879.72;782.65;;;18.20;99.90;;;;;;6338084;22;20024;-88
2023/09/11 02:23:24;;;;;;;711.50;530.35;;;18.20;99.90;;;;;;6338236;22;20019;-89
2023/09/11 02:25:51;;;;;;;726.03;531.95;;;18.20;99.90;;;;;;6338480;22;20050;-89
2023/09/11 02:28:16;;;;;;;901.28;785.30;;;18.20;99.90;;;;;;6340015;22;20018;-90
2023/09/11 02:30:42;;;;;;;905.53;783.65;;;18.10;99.90;;;;;;6337897;22;20098;-90
2023/09/11 02:33:08;;;;;;;913.88;786.58;;;18.10;99.90;;;;;;6339330;22;20015;-89
2023/09/11 02:35:36;;;;;;;766.42;537.72;;;18.10;99.90;;;;;;6338287;22;20022;-89
2023/09/11 02:38:02;;;;;;;766.25;535.53;;;18.10;99.90;;;;;;6339253;22;20014;-88
2023/09/11 02:40:28;;;;;;;766.72;527.25;;;18.10;99.90;;;;;;6313954;22;20011;-90
2023/09/11 02:42:53;;;;;;;757.95;532.67;;;18.10;99.90;;;;;;6338684;22;20072;-90
2023/09/11 02:45:19;;;;;;;919.88;778.17;;;18.00;99.90;;;;;;6340888;22;20333;-90
2023/09/11 02:47:45;;;;;;;909.40;771.35;;;18.00;99.90;;;;;;6346898;22;20023;-90
2023/09/11 02:50:10;;;;;;;907.20;770.97;;;18.00;99.90;;;;;;6344889;22;20066;-90
2023/09/11 02:52:36;;;;;;;745.13;527.42;;;18.00;99.90;;;;;;6339336;22;20017;-89
2023/09/11 02:55:02;;;;;;;900.95;783.78;;;18.00;99.90;;;;;;6339327;22;20022;-87
2023/09/11 02:57:28;;;;;;;886.90;778.33;;;18.00;99.90;;;;;;6340243;22;20456;-90
2023/09/11 02:59:55;;;;;;;884.53;778.08;;;18.00;99.90;;;;;;6338579;22;20023;-89
2023/09/11 03:02:24;;;;;;;735.78;520.53;;;17.90;99.90;;;;;;6338390;22;20018;-89
2023/09/11 03:04:50;;;;;;;733.20;532.92;;;17.90;99.90;;;;;;6339914;22;20011;-88
2023/09/11 03:07:17;;;;;;;886.90;778.55;;;17.90;99.90;;;;;;6338162;22;20019;-88
2023/09/11 03:09:46;;;;;;;879.95;771.63;;;17.90;99.90;;;;;;6339553;22;20076;-89
2023/09/11 03:12:12;;;;;;;714.05;526.75;;;17.90;99.90;;;;;;6339587;22;20076;-89
2023/09/11 03:14:39;;;;;;;874.30;772.72;;;17.90;99.90;;;;;;6337975;22;20015;-90
2023/09/11 03:17:05;;;;;;;876.88;776.65;;;18.00;99.90;;;;;;6312593;22;20024;-89
2023/09/11 03:19:35;;;;;;;881.42;776.58;;;17.90;99.90;;;;;;6340105;22;20461;-89
2023/09/11 03:22:01;;;;;;;884.60;779.03;;;17.90;99.90;;;;;;6338012;22;20460;-89
2023/09/11 03:24:27;;;;;;;884.13;779.05;;;17.90;99.90;;;;;;6311249;22;20019;-88
2023/09/11 03:26:52;;;;;;;719.90;525.13;;;17.90;99.90;;;;;;6337830;22;20090;-89
2023/09/11 03:29:18;;;;;;;886.38;784.08;;;17.90;99.90;;;;;;6339236;22;20023;-90
2023/09/11 03:31:44;;;;;;;734.65;525.00;;;17.80;99.90;;;;;;6337607;22;20019;-89
2023/09/11 03:34:10;;;;;;;891.28;771.00;;;17.80;99.90;;;;;;6337659;22;20015;-89
2023/09/11 03:36:36;;;;;;;886.63;779.15;;;17.80;99.90;;;;;;6339135;22;20444;-89
2023/09/11 03:39:02;;;;;;;886.58;770.72;;;17.80;99.90;;;;;;6338134;22;20025;-89
2023/09/11 03:41:29;;;;;;;729.30;528.05;;;17.80;99.90;;;;;;6338136;22;20437;-89
2023/09/11 03:43:55;;;;;;;730.22;525.70;;;17.80;99.90;;;;;;6311293;22;20029;-89
2023/09/11 03:46:20;;;;;;;876.92;771.17;;;17.70;99.90;;;;;;6311126;22;20010;-89
2023/09/11 03:48:47;;;;;;;739.83;519.25;;;17.70;99.90;;;;;;6337843;22;20019;-88
2023/09/11 03:51:13;;;;;;;909.53;773.17;;;17.70;99.90;;;;;;6339441;22;20086;-91
2023/09/11 03:53:42;;;;;;;911.25;776.65;;;17.70;99.90;;;;;;6311338;22;20072;-89
2023/09/11 03:56:11;;;;;;;730.25;516.33;;;17.70;99.90;;;;;;6337406;22;20022;-90
2023/09/11 03:58:38;;;;;;;906.35;752.67;;;17.70;99.90;;;;;;6311180;22;20018;-89
2023/09/11 04:01:04;;;;;;;770.33;529.60;;;17.70;99.90;;;;;;6337552;22;20095;-89
2023/09/11 04:03:31;;;;;;;931.42;771.95;;;17.70;99.90;;;;;;6315527;22;20345;-90
2023/09/11 04:05:59;;;;;;;735.65;503.52;;;17.50;99.90;;;;;;6313978;22;20026;-90
2023/09/11 04:08:25;;;;;;;903.13;770.45;;;17.60;99.90;;;;;;6311351;22;20030;-90
2023/09/11 04:10:50;;;;;;;901.72;779.55;;;17.60;99.90;;;;;;6337794;22;20015;-90
2023/09/11 04:13:16;;;;;;;910.72;783.13;;;17.60;99.90;;;;;;6337076;22;20019;-88
2023/09/11 04:15:43;;;;;;;747.30;530.35;;;17.60;99.90;;;;;;6336489;22;20788;-90
2023/09/11 04:18:09;;;;;;;746.08;525.28;;;17.70;99.90;;;;;;6310375;22;20349;-89
2023/09/11 04:20:35;;;;;;;899.75;771.20;;;17.60;99.90;;;;;;6339157;22;20022;-90
2023/09/11 04:23:04;;;;;;;899.45;773.10;;;17.60;99.90;;;;;;6339306;22;20022;-91
2023/09/11 04:25:33;;;;;;;890.92;778.72;;;17.60;99.90;;;;;;6339234;22;20011;-90
2023/09/11 04:28:02;;;;;;;724.35;523.80;;;17.60;99.90;;;;;;6337470;22;20440;-89
2023/09/11 04:30:31;;;;;;;724.85;513.40;;;17.60;99.90;;;;;;6339126;22;20021;-89
2023/09/11 04:32:56;;;;;;;899.63;766.55;;;17.60;99.90;;;;;;6337478;22;20096;-90
2023/09/11 04:35:23;;;;;;;882.50;757.63;;;17.60;99.90;;;;;;6338900;22;20433;-90
2023/09/11 04:37:49;;;;;;;734.42;519.60;;;17.60;99.90;;;;;;6338896;22;20059;-88
2023/09/11 04:40:15;;;;;;;732.83;525.65;;;17.50;99.90;;;;;;6337609;22;20049;-87
2023/09/11 04:42:43;;;;;;;732.05;525.03;;;17.50;99.90;;;;;;6338322;22;20019;-89
2023/09/11 04:45:10;;;;;;;714.03;522.58;;;17.50;99.90;;;;;;6336497;22;20026;-89
2023/09/11 04:47:36;;;;;;;868.45;772.35;;;17.50;99.90;;;;;;6336917;22;20338;-90
2023/09/11 04:50:01;;;;;;;864.72;765.22;;;17.80;99.90;;;;;;6338969;22;20019;-89
2023/09/11 04:52:27;;;;;;;695.17;498.50;;;17.50;99.90;;;;;;6336970;22;20345;-90
2023/09/11 04:54:53;;;;;;;706.60;529.92;;;17.50;99.90;;;;;;6339817;22;20015;-89
2023/09/11 04:57:19;;;;;;;697.58;522.78;;;17.50;99.90;;;;;;6338846;22;20018;-90
2023/09/11 04:59:44;;;;;;;858.75;764.40;;;17.50;99.90;;;;;;6312947;22;20015;-87
2023/09/11 05:02:10;;;;;;;677.65;513.35;;;17.50;99.90;;;;;;6313115;22;20026;-88
2023/09/11 05:04:36;;;;;;;858.85;765.65;;;17.50;99.90;;;;;;6338782;22;20022;-90
2023/09/11 05:07:02;;;;;;;671.53;513.72;;;17.50;99.90;;;;;;6340734;22;20090;-87
2023/09/11 05:09:30;;;;;;;853.30;761.33;;;17.50;99.90;;;;;;6340750;22;20068;-87
2023/09/11 05:11:58;;;;;;;669.83;518.67;;;17.50;99.90;;;;;;6338525;22;20350;-90
2023/09/11 05:14:24;;;;;;;861.05;766.85;;;17.50;99.90;;;;;;6312637;22;20470;-89
2023/09/11 05:16:50;;;;;;;651.85;511.10;;;17.50;99.90;;;;;;6338926;22;20452;-88
2023/09/11 05:19:16;;;;;;;859.35;769.72;;;17.50;99.90;;;;;;6340536;22;20090;-87
2023/09/11 05:21:42;;;;;;;857.38;768.08;;;17.50;99.90;;;;;;6338344;22;20026;-89
2023/09/11 05:24:08;;;;;;;647.80;514.22;;;17.50;99.90;;;;;;6340331;22;20015;-88
2023/09/11 05:26:34;;;;;;;652.15;520.63;;;17.50;99.90;;;;;;6340154;22;20025;-89
2023/09/11 05:29:00;;;;;;;852.38;763.35;;;17.60;99.90;;;;;;6338679;22;20015;-89
2023/09/11 05:31:26;;;;;;;649.25;516.95;;;17.60;99.90;;;;;;6338900;22;20022;-89
2023/09/11 05:33:51;;;;;;;635.90;501.05;;;17.60;99.90;;;;;;6339173;22;20023;-88
2023/09/11 05:36:17;;;;;;;852.65;763.50;;;17.60;99.90;;;;;;6338496;22;20015;-89
2023/09/11 05:38:43;;;;;;;857.53;769.28;;;17.60;99.90;;;;;;6340021;22;20093;-89
2023/09/11 05:41:09;;;;;;;855.03;767.30;;;17.70;99.90;;;;;;6340029;22;20017;-88
2023/09/11 05:43:36;;;;;;;646.22;512.70;;;17.70;99.90;;;;;;6338185;22;20050;-88
2023/09/11 05:46:02;;;;;;;854.17;766.75;;;17.70;99.90;;;;;;6312527;22;20086;-89
2023/09/11 05:48:27;;;;;;;838.95;752.90;;;17.70;99.90;;;;;;6340143;22;20050;-90
2023/09/11 05:50:53;;;;;;;857.92;770.45;;;17.80;99.90;;;;;;6338143;22;20043;-87
2023/09/11 05:53:19;;;;;;;630.88;520.15;;;17.80;99.90;;;;;;6337793;22;20015;-89
2023/09/11 05:55:45;;;;;;;617.40;503.85;;;17.80;99.90;;;;;;6339760;22;20010;-88
2023/09/11 05:58:11;;;;;;;861.03;776.28;;;17.90;99.90;;;;;;6337795;22;20395;-89
2023/09/11 06:00:37;;;;;;;606.13;511.73;;;17.90;99.90;;;;;;6339761;22;20018;-88
2023/09/11 06:03:02;;;;;;;602.33;514.65;;;18.00;99.90;;;;;;6339353;22;20011;-88
2023/09/11 06:05:31;;;;;;;604.13;509.90;;;18.00;99.90;;;;;;6337795;22;20030;-88
2023/09/11 06:07:56;;;;;;;851.38;766.40;;;18.10;99.90;;;;;;6338467;22;20019;-88
2023/09/11 06:10:22;;;;;;;854.13;768.97;;;18.10;99.90;;;;;;6339256;22;20031;-89
2023/09/11 06:12:48;;;;;;;608.75;515.72;;;18.20;99.90;;;;;;6337985;22;20018;-86
2023/09/11 06:15:14;;;;;;;859.65;774.38;;;18.30;99.90;;;;;;6337651;22;20022;-86
2023/09/11 06:17:40;;;;;;;858.58;774.13;;;18.40;99.90;;;;;;6338262;22;20011;-86
2023/09/11 06:20:09;;;;;;;604.45;516.92;;;18.50;99.90;;;;;;6339698;22;20075;-86
2023/09/11 06:26:17;;;;;;;844.53;761.83;;;18.70;99.90;;;;;;6279198;22;20320;-88
2023/09/11 06:28:46;;;;;;;862.58;779.92;;;18.80;99.90;;;;;;6255871;22;20019;-91
2023/09/11 06:38:59;;;;;;;864.35;782.30;;;19.20;99.90;;;;;;6255788;22;20065;-93
2023/09/11 06:41:25;;;;;;;593.13;518.83;;;19.40;99.90;;;;;;6337075;22;20094;-86
2023/09/11 06:44:08;;;;;;;656.67;536.72;;;19.50;99.90;;;;;;6339242;22;20045;-88
2023/09/11 06:46:34;;;;;;;886.90;793.50;;;19.60;99.90;;;;;;6339679;22;20010;-84
2023/09/11 06:49:00;;;;;;;673.05;541.33;;;19.70;99.90;;;;;;6338847;22;20026;-86
2023/09/11 06:51:26;;;;;;;879.00;797.17;;;20.10;99.90;;;;;;6311338;22;20026;-87
2023/09/11 06:53:53;;;;;;;619.40;536.97;;;20.00;99.90;;;;;;6337247;22;20022;-86
2023/09/11 06:56:18;;;;;;;585.42;527.58;;;20.00;99.90;;;;;;6337641;22;20056;-86
2023/09/11 06:58:45;;;;;;;586.35;529.30;;;20.20;99.90;;;;;;6337023;22;20349;-87
2023/09/11 07:01:11;;;;;;;576.08;520.40;;;20.30;99.90;;;;;;6337442;22;20026;-87
2023/09/11 07:03:40;;;;;;;586.75;529.92;;;20.40;99.90;;;;;;6337978;22;20011;-89
2023/09/11 07:06:24;;;;;;;880.75;804.45;;;20.50;99.90;;;;;;6338500;22;20101;-90
2023/09/11 07:08:57;;;;;;;644.35;552.78;;;20.70;99.90;;;;;;6337099;22;20038;-87
2023/09/11 07:11:23;;;;;;;888.50;809.33;;;20.80;99.90;;;;;;6340435;22;20341;-88
2023/09/11 07:13:55;;;;;;;607.03;542.85;;;21.00;99.90;;;;;;6337070;22;20074;-88
2023/09/11 07:16:21;;;;;;;601.88;542.25;;;21.10;99.90;;;;;;6338702;22;20011;-85
2023/09/11 07:18:50;;;;;;;608.15;543.85;;;21.20;99.90;;;;;;6337638;22;20075;-88
2023/09/11 07:21:16;;;;;;;906.75;826.25;;;21.30;99.90;;;;;;6336345;22;20026;-88
2023/09/11 07:23:56;;;;;;;;;;;;;;;;;;;;;
2023/09/11 07:26:25;;;;;;;917.63;836.55;;;21.50;99.90;;;;;;6284644;22;20400;-89
2023/09/11 07:29:10;;;;;;;651.97;563.67;;;21.70;99.90;;;;;;6338964;22;20018;-90
2023/09/11 08:08:38;;;;;;;973.78;877.50;;;23.90;99.90;;;;;;6338469;22;20022;-88
2023/09/11 08:11:12;;;;;;;688.80;600.45;;;24.10;99.90;;;;;;6311008;22;20019;-86
2023/09/11 08:13:38;;;;;;;1176.43;999.90;;;24.30;99.90;;;;;;6310699;22;20353;-87
2023/09/11 08:16:04;;;;;;;720.97;632.17;;;24.40;99.90;;;;;;6340860;22;20017;-88
2023/09/11 08:18:30;;;;;;;710.90;633.13;;;24.60;99.90;;;;;;6338691;22;20015;-86
2023/09/11 08:20:55;;;;;;;1005.50;906.83;;;24.60;99.90;;;;;;6310728;22;20090;-86
2023/09/11 08:23:26;;;;;;;712.38;631.42;;;24.90;99.90;;;;;;6333525;22;20019;-89
2023/09/11 08:26:38;;;;;;;1000.92;903.70;;;25.00;99.90;;;;;;6310448;22;20029;-89
2023/09/11 08:33:54;;;;;;;1006.30;908.15;;;25.40;99.90;;;;;;6093592;23;20026;-87
2023/09/11 08:36:22;;;;;;;717.08;640.50;;;25.60;99.90;;;;;;6093833;23;20079;-87
2023/09/11 08:38:58;;;;;;;729.63;649.85;;;25.80;99.90;;;;;;6069611;23;20014;-87
2023/09/11 08:41:25;;;;;;;722.35;645.75;;;25.90;99.90;;;;;;6094100;23;20093;-87
2023/09/11 08:43:51;;;;;;;1030.97;934.80;;;26.10;99.90;;;;;;6069610;23;20315;-86
2023/09/11 08:46:18;;;;;;;1018.90;926.55;;;26.20;99.90;;;;;;6069511;23;20093;-86
2023/09/11 08:48:49;;;;;;;1027.60;936.88;;;26.40;99.90;;;;;;6069512;23;20110;-86
2023/09/11 08:51:38;;;;;;;1037.07;945.88;;;26.50;99.90;;;;;;6069486;23;20464;-87
2023/09/11 08:54:04;;;;;;;1039.85;945.53;;;26.60;99.90;;;;;;6069431;23;20481;-86
2023/09/11 08:56:31;;;;;;;734.67;661.78;;;26.80;99.90;;;;;;6069630;23;20019;-87
2023/09/11 08:58:58;;;;;;;1060.40;958.10;;;26.90;99.90;;;;;;6070936;23;20423;-85
2023/09/11 09:20:40;;;;;;;;;;;;;;;;;;;;;
2023/09/11 09:46:23;;;;;;;739.05;669.50;;;28.70;99.90;;;;;;6109914;22;1320970;-88
2023/09/11 09:48:49;;;;;;;751.17;680.60;;;28.80;99.90;;;;;;6162152;23;20352;-89
2023/09/11 09:51:28;;;;;;;888.38;692.58;;;28.80;99.90;;;;;;6137310;23;20053;-88
2023/09/11 09:53:54;;;;;;;1099.50;981.92;;;28.90;99.90;;;;;;6162253;23;20025;-86
2023/09/11 09:56:22;;;;;;;1113.22;986.33;;;28.80;99.90;;;;;;6161895;23;20023;-86
2023/09/11 09:58:48;;;;;;;1132.53;999.33;;;28.90;99.90;;;;;;6161721;23;20049;-85
2023/09/11 10:02:02;;;;;;;875.20;733.25;;;29.10;99.90;;;;;;6162322;23;20025;-89
2023/09/11 10:05:20;;;;;;;;;;;;;;;;;;;;;
2023/09/11 10:08:10;;;;;;;1123.68;998.80;;;29.30;99.90;;;;;;6033351;23;20021;-91
2023/09/11 10:13:49;;;;;;;1204.45;997.78;;;29.50;99.90;;;;;;6163935;23;20535;-90
2023/09/11 10:16:16;;;;;;;1168.75;996.50;;;29.60;99.90;;;;;;6138049;23;20404;-84
2023/09/11 10:18:45;;;;;;;987.10;750.13;;;29.70;99.90;;;;;;6113698;23;20108;-86
2023/09/11 10:21:18;;;;;;;1173.75;999.90;;;29.80;99.90;;;;;;6136727;23;20029;-86
2023/09/11 10:23:44;;;;;;;1134.15;999.90;;;29.80;99.90;;;;;;6137677;23;20013;-89
2023/09/11 10:26:22;;;;;;;873.03;739.60;;;29.80;99.90;;;;;;6163100;23;20013;-88
2023/09/11 10:28:51;;;;;;;1126.35;999.70;;;29.90;99.90;;;;;;6135826;23;20021;-89
2023/09/11 10:31:23;;;;;;;1138.97;999.90;;;29.90;99.90;;;;;;6137350;23;20025;-86
2023/09/11 10:33:55;;;;;;;931.17;752.60;;;29.90;99.90;;;;;;6132978;23;20018;-86
2023/09/11 10:40:32;;;;;;;1119.65;999.88;;;30.00;99.90;;;;;;6157131;23;20073;-89
2023/09/11 10:42:59;;;;;;;1114.40;998.92;;;30.10;99.90;;;;;;6106520;23;20025;-86
2023/09/11 10:45:32;;;;;;;1123.95;999.90;;;30.20;99.90;;;;;;6156835;23;20017;-87
2023/09/11 10:47:58;;;;;;;1125.22;999.90;;;30.30;99.90;;;;;;6106511;23;20022;-88
2023/09/11 10:50:35;;;;;;;1136.75;999.90;;;30.40;99.90;;;;;;6130728;23;20028;-88
2023/09/11 10:53:04;;;;;;;829.58;742.28;;;30.50;99.90;;;;;;6107308;23;20013;-91
2023/09/11 10:55:30;;;;;;;833.65;748.45;;;30.50;99.90;;;;;;6157206;23;20184;-88
2023/09/11 10:57:59;;;;;;;1141.18;999.90;;;30.50;99.90;;;;;;6130643;23;20053;-87
2023/09/11 11:00:28;;;;;;;1185.65;999.90;;;30.70;99.90;;;;;;6130699;23;20092;-89
2023/09/11 11:02:56;;;;;;;908.20;745.28;;;30.90;99.90;;;;;;6106164;23;20500;-90
2023/09/11 11:05:23;;;;;;;1174.50;999.90;;;30.90;99.90;;;;;;6130990;23;20018;-88
2023/09/11 11:07:50;;;;;;;1176.50;999.90;;;31.00;99.90;;;;;;6157304;23;20064;-88
2023/09/11 11:10:17;;;;;;;1163.55;999.90;;;30.80;99.90;;;;;;6157175;23;20018;-87
2023/09/11 11:12:44;;;;;;;1070.07;765.00;;;30.90;99.90;;;;;;6130703;23;20096;-89
2023/09/11 11:15:24;;;;;;;1185.22;999.90;;;31.00;99.90;;;;;;6157493;23;20017;-89
2023/09/11 11:18:11;;;;;;;1062.05;761.53;;;31.10;99.90;;;;;;6130519;23;20021;-90
2023/09/11 11:20:38;;;;;;;1274.72;999.90;;;31.20;99.90;;;;;;6131129;23;20079;-87
2023/09/11 11:23:11;;;;;;;1058.22;763.72;;;31.10;99.90;;;;;;6130793;23;20645;-86
2023/09/11 11:25:41;;;;;;;1050.15;757.50;;;31.10;99.90;;;;;;6156622;23;20448;-88
2023/09/11 11:28:14;;;;;;;1046.95;758.58;;;31.10;99.90;;;;;;6130565;23;20063;-85
2023/09/11 11:30:40;;;;;;;1113.25;764.75;;;31.10;99.90;;;;;;6130545;23;20028;-87
2023/09/11 11:33:07;;;;;;;1072.13;760.55;;;31.30;99.90;;;;;;6130817;23;20023;-89
2023/09/11 11:35:33;;;;;;;1233.55;999.90;;;31.30;99.90;;;;;;6156724;23;20457;-85
2023/09/11 11:38:00;;;;;;;1190.50;999.90;;;31.40;99.90;;;;;;6107168;23;20093;-89
2023/09/11 11:40:26;;;;;;;1215.45;999.90;;;31.40;99.90;;;;;;6157462;23;20060;-88
2023/09/11 11:42:52;;;;;;;999.80;750.20;;;31.40;99.90;;;;;;6156944;23;20025;-87
2023/09/11 11:45:18;;;;;;;1281.30;999.90;;;31.50;99.90;;;;;;6129814;23;20079;-86
2023/09/11 11:47:44;;;;;;;1207.43;999.90;;;31.50;99.90;;;;;;6129852;23;20100;-87
2023/09/11 11:50:11;;;;;;;1193.38;999.90;;;31.60;99.90;;;;;;6130082;23;20084;-86
2023/09/11 11:52:37;;;;;;;1192.45;999.90;;;31.60;99.90;;;;;;6105380;23;20048;-86
2023/09/11 11:55:18;;;;;;;1195.95;999.90;;;31.70;99.90;;;;;;6156320;23;20014;-86
2023/09/11 11:57:49;;;;;;;838.28;750.75;;;31.80;99.90;;;;;;6156203;23;20177;-87
2023/09/11 12:00:15;;;;;;;843.38;757.03;;;31.80;99.90;;;;;;6130032;23;20022;-84
2023/09/11 12:02:40;;;;;;;858.00;769.78;;;31.90;99.90;;;;;;6105127;23;20022;-85
2023/09/11 12:05:12;;;;;;;1148.03;999.90;;;31.90;99.90;;;;;;6130178;23;20025;-84
2023/09/11 12:07:38;;;;;;;853.90;764.83;;;31.90;99.80;;;;;;6155826;23;20017;-85
2023/09/11 12:10:04;;;;;;;1157.25;999.90;;;31.90;99.60;;;;;;6129455;23;20417;-84
2023/09/11 12:12:30;;;;;;;826.75;746.67;;;31.90;99.90;;;;;;6156266;23;20088;-84
2023/09/11 12:14:56;;;;;;;1139.95;999.90;;;31.90;99.40;;;;;;6129540;23;20044;-84
2023/09/11 12:17:22;;;;;;;840.53;756.58;;;32.10;98.20;;;;;;6129221;23;20072;-83
2023/09/11 12:19:47;;;;;;;819.10;740.78;;;32.10;98.20;;;;;;6155713;23;20093;-85
2023/09/11 12:22:13;;;;;;;821.15;746.08;;;32.10;99.00;;;;;;6129473;23;20080;-85
2023/09/11 12:24:39;;;;;;;817.15;743.30;;;32.00;99.60;;;;;;6104942;23;20318;-85
2023/09/11 12:27:05;;;;;;;809.08;736.38;;;31.90;99.10;;;;;;6105363;23;20092;-87
2023/09/11 12:29:32;;;;;;;825.20;748.60;;;32.00;99.00;;;;;;6129348;23;20017;-85
2023/09/11 12:31:58;;;;;;;815.92;740.47;;;32.10;98.60;;;;;;6155722;23;20096;-84
2023/09/11 12:34:24;;;;;;;1126.25;999.90;;;32.20;98.90;;;;;;6129086;23;20021;-85
2023/09/11 12:36:50;;;;;;;831.85;750.95;;;32.10;97.80;;;;;;6129064;23;20017;-85
2023/09/11 12:39:15;;;;;;;1123.55;999.90;;;32.20;98.30;;;;;;6104555;23;20010;-85
2023/09/11 12:41:41;;;;;;;827.20;752.55;;;32.20;97.20;;;;;;6129040;23;20124;-84
2023/09/11 12:44:07;;;;;;;1120.18;999.90;;;32.20;97.90;;;;;;6155365;23;20009;-85
2023/09/11 12:46:33;;;;;;;795.78;729.38;;;32.20;97.80;;;;;;6155366;23;20018;-86
2023/09/11 12:48:59;;;;;;;806.13;738.85;;;32.20;98.20;;;;;;6129289;23;20021;-85
2023/09/11 12:51:25;;;;;;;1110.47;999.90;;;32.30;98.00;;;;;;6155484;23;20325;-84
2023/09/11 12:53:51;;;;;;;788.55;724.50;;;32.40;98.00;;;;;;6155414;23;20017;-85
2023/09/11 12:56:24;;;;;;;1124.07;999.90;;;32.40;97.50;;;;;;6129352;23;20017;-86
2023/09/11 12:58:50;;;;;;;826.25;751.85;;;32.40;97.10;;;;;;6128790;23;20029;-85
2023/09/11 13:01:15;;;;;;;1131.30;999.90;;;32.50;96.50;;;;;;6155246;23;20467;-85
2023/09/11 13:03:46;;;;;;;833.83;763.25;;;32.50;96.80;;;;;;6128330;23;20076;-87
2023/09/11 13:06:11;;;;;;;1125.90;999.90;;;32.50;97.30;;;;;;6154895;23;20010;-84
2023/09/11 13:08:37;;;;;;;1126.55;999.90;;;32.50;96.90;;;;;;6129095;23;20404;-84
2023/09/11 13:11:03;;;;;;;842.10;769.75;;;32.50;96.30;;;;;;6129300;23;20017;-85
2023/09/11 13:13:29;;;;;;;1135.10;999.90;;;32.70;96.40;;;;;;6129300;23;20030;-85
2023/09/11 13:15:54;;;;;;;824.08;749.33;;;32.50;96.80;;;;;;6154920;23;20010;-85
2023/09/11 13:18:20;;;;;;;1126.55;999.90;;;32.30;96.70;;;;;;6129053;23;20022;-85
2023/09/11 13:20:46;;;;;;;1141.75;999.90;;;32.30;97.00;;;;;;6129062;23;20014;-85
2023/09/11 13:23:12;;;;;;;1123.00;999.90;;;32.30;97.40;;;;;;6104814;23;20340;-85
2023/09/11 13:25:38;;;;;;;1126.88;999.90;;;32.30;97.60;;;;;;6128706;23;20448;-85
2023/09/11 13:28:03;;;;;;;816.95;745.88;;;32.30;97.50;;;;;;6129118;23;20173;-85
2023/09/11 13:30:31;;;;;;;1125.50;999.90;;;32.30;97.20;;;;;;6155463;23;20133;-85
2023/09/11 13:32:57;;;;;;;1127.90;999.90;;;32.30;96.60;;;;;;6103983;23;20029;-85
2023/09/11 13:35:22;;;;;;;804.28;734.65;;;32.20;97.10;;;;;;6104140;23;20005;-85
2023/09/11 13:37:48;;;;;;;1125.38;999.90;;;32.30;96.00;;;;;;6128728;23;20021;-84
2023/09/11 13:40:14;;;;;;;1121.70;999.90;;;32.30;96.50;;;;;;6154613;23;20024;-85
2023/09/11 13:42:39;;;;;;;1131.18;999.90;;;32.20;95.60;;;;;;6104225;23;20021;-85
2023/09/11 13:45:06;;;;;;;1123.45;999.90;;;32.20;96.10;;;;;;6128566;23;20095;-84
2023/09/11 13:47:32;;;;;;;827.30;755.67;;;32.20;95.90;;;;;;6128855;23;20028;-85
2023/09/11 13:49:57;;;;;;;832.45;762.85;;;32.30;96.40;;;;;;6154883;23;20013;-87
2023/09/11 13:52:23;;;;;;;831.95;761.22;;;32.30;96.50;;;;;;6128618;23;20471;-84
2023/09/11 13:54:49;;;;;;;1121.78;999.90;;;32.30;96.60;;;;;;6129007;23;20024;-84
2023/09/11 13:57:14;;;;;;;1120.35;999.90;;;32.30;96.70;;;;;;6128761;23;20025;-84
2023/09/11 13:59:40;;;;;;;840.42;770.42;;;32.30;96.60;;;;;;6128724;23;20025;-85